sensor_id;sensor_type;location;lat;lon;timestamp;temperature;humidity
64468;DHT22;50853;46.836;16.820;2023-03-05T10:11:23;23.70;37.70
64468;DHT22;50853;46.836;16.820;2023-03-05T10:13:53;23.80;40.10
64468;DHT22;50853;46.836;16.820;2023-03-05T10:21:34;24.00;37.30
64468;DHT22;50853;46.836;16.820;2023-03-05T10:26:43;24.10;37.90
64468;DHT22;50853;46.836;16.820;2023-03-05T10:45:29;24.30;39.40
64468;DHT22;50853;46.836;16.820;2023-03-05T10:51:22;24.40;38.90
64468;DHT22;50853;46.836;16.820;2023-03-05T10:53:55;24.40;39.10
64468;DHT22;50853;46.836;16.820;2023-03-05T10:56:22;24.40;39.10
64468;DHT22;50853;46.836;16.820;2023-03-05T10:58:49;24.40;39.10
64468;DHT22;50853;46.836;16.820;2023-03-05T11:03:58;24.40;39.20
64468;DHT22;50853;46.836;16.820;2023-03-05T11:06:32;24.50;39.40
64468;DHT22;50853;46.836;16.820;2023-03-05T11:42:15;24.40;39.20
64468;DHT22;50853;46.836;16.820;2023-03-05T11:44:48;24.40;42.00
64468;DHT22;50853;46.836;16.820;2023-03-05T11:49:53;24.50;39.10
64468;DHT22;50853;46.836;16.820;2023-03-05T11:52:25;24.60;39.30
64468;DHT22;50853;46.836;16.820;2023-03-05T11:55:15;24.60;39.50
64468;DHT22;50853;46.836;16.820;2023-03-05T12:00:42;24.70;39.50
64468;DHT22;50853;46.836;16.820;2023-03-05T12:03:14;24.70;39.60
64468;DHT22;50853;46.836;16.820;2023-03-05T12:05:43;24.70;39.60
64468;DHT22;50853;46.836;16.820;2023-03-05T12:47:39;24.90;39.60
64468;DHT22;50853;46.836;16.820;2023-03-05T15:23:44;24.20;34.10
64468;DHT22;50853;46.836;16.820;2023-03-05T15:26:13;24.30;36.30
64468;DHT22;50853;46.836;16.820;2023-03-05T15:28:39;24.40;35.50
64468;DHT22;50853;46.836;16.820;2023-03-05T15:31:05;24.40;34.80
64468;DHT22;50853;46.836;16.820;2023-03-05T15:33:32;24.50;35.50
64468;DHT22;50853;46.836;16.820;2023-03-05T15:35:58;24.50;35.40
64468;DHT22;50853;46.836;16.820;2023-03-05T15:38:25;24.60;36.40
64468;DHT22;50853;46.836;16.820;2023-03-05T15:40:51;24.60;36.30
64468;DHT22;50853;46.836;16.820;2023-03-05T15:43:18;24.60;35.80
64468;DHT22;50853;46.836;16.820;2023-03-05T15:45:44;24.60;35.80
64468;DHT22;50853;46.836;16.820;2023-03-05T15:48:10;24.60;36.70
64468;DHT22;50853;46.836;16.820;2023-03-05T15:50:39;24.60;35.90
64468;DHT22;50853;46.836;16.820;2023-03-05T15:53:06;24.70;38.90
64468;DHT22;50853;46.836;16.820;2023-03-05T15:55:39;24.70;39.00
64468;DHT22;50853;46.836;16.820;2023-03-05T15:58:05;24.70;37.90
64468;DHT22;50853;46.836;16.820;2023-03-05T16:00:34;24.80;40.20
64468;DHT22;50853;46.836;16.820;2023-03-05T16:03:01;24.90;40.90
64468;DHT22;50853;46.836;16.820;2023-03-05T16:05:28;24.90;39.30
64468;DHT22;50853;46.836;16.820;2023-03-05T16:07:54;24.90;41.10
64468;DHT22;50853;46.836;16.820;2023-03-05T16:10:23;24.90;38.60
64468;DHT22;50853;46.836;16.820;2023-03-05T16:12:53;24.80;39.10
